sensor_id;sensor_type;location;lat;lon;timestamp;pressure;altitude;pressure_sealevel;temperature;humidity
56400;BME280;42298;53.638;9.876;2023-10-09T00:02:10;101975.00;;;12.27;76.06
56400;BME280;42298;53.638;9.876;2023-10-09T00:04:37;101931.13;;;12.30;76.26
56400;BME280;42298;53.638;9.876;2023-10-09T00:07:03;101923.38;;;12.36;75.88
56400;BME280;42298;53.638;9.876;2023-10-09T00:09:33;101919.59;;;12.29;75.88
56400;BME280;42298;53.638;9.876;2023-10-09T00:12:06;101914.81;;;12.23;76.15
56400;BME280;42298;53.638;9.876;2023-10-09T00:14:35;101910.75;;;12.19;76.06
56400;BME280;42298;53.638;9.876;2023-10-09T00:17:05;101898.13;;;12.11;76.09
56400;BME280;42298;53.638;9.876;2023-10-09T00:19:44;101883.91;;;12.11;76.56
56400;BME280;42298;53.638;9.876;2023-10-09T00:22:09;101882.94;;;12.02;76.83
56400;BME280;42298;53.638;9.876;2023-10-09T00:24:55;101888.13;;;12.04;76.96
56400;BME280;42298;53.638;9.876;2023-10-09T00:27:41;101884.78;;;12.11;77.07
56400;BME280;42298;53.638;9.876;2023-10-09T00:30:16;101875.63;;;12.14;77.07
56400;BME280;42298;53.638;9.876;2023-10-09T00:32:47;101873.09;;;12.12;76.76
56400;BME280;42298;53.638;9.876;2023-10-09T00:35:26;101882.06;;;12.21;76.80
56400;BME280;42298;53.638;9.876;2023-10-09T00:38:24;101866.44;;;12.26;77.12
56400;BME280;42298;53.638;9.876;2023-10-09T00:40:52;101867.28;;;12.36;76.44
56400;BME280;42298;53.638;9.876;2023-10-09T00:43:38;101856.16;;;12.41;76.87
56400;BME280;42298;53.638;9.876;2023-10-09T00:46:08;101848.84;;;12.43;76.39
56400;BME280;42298;53.638;9.876;2023-10-09T00:49:00;101837.13;;;12.44;76.20
56400;BME280;42298;53.638;9.876;2023-10-09T00:51:28;101839.53;;;12.47;76.50
56400;BME280;42298;53.638;9.876;2023-10-09T00:54:01;101822.94;;;12.43;76.08
56400;BME280;42298;53.638;9.876;2023-10-09T00:56:38;101813.84;;;12.36;76.33
56400;BME280;42298;53.638;9.876;2023-10-09T00:59:05;101811.03;;;12.38;76.41
56400;BME280;42298;53.638;9.876;2023-10-09T01:01:35;101801.63;;;12.34;76.44
56400;BME280;42298;53.638;9.876;2023-10-09T01:04:05;101804.44;;;12.32;76.47
56400;BME280;42298;53.638;9.876;2023-10-09T01:06:33;101817.50;;;12.35;76.29
56400;BME280;42298;53.638;9.876;2023-10-09T01:09:07;101805.81;;;12.36;76.39
56400;BME280;42298;53.638;9.876;2023-10-09T01:11:35;101798.13;;;12.33;76.09
56400;BME280;42298;53.638;9.876;2023-10-09T01:14:12;101802.16;;;12.37;76.37
56400;BME280;42298;53.638;9.876;2023-10-09T01:16:39;101798.50;;;12.38;76.22
56400;BME280;42298;53.638;9.876;2023-10-09T01:19:08;101776.44;;;12.36;76.17
56400;BME280;42298;53.638;9.876;2023-10-09T01:21:56;101775.50;;;12.28;76.22
56400;BME280;42298;53.638;9.876;2023-10-09T01:24:27;101778.72;;;12.31;76.64
56400;BME280;42298;53.638;9.876;2023-10-09T01:26:56;101767.03;;;12.32;76.62
56400;BME280;42298;53.638;9.876;2023-10-09T01:29:24;101776.13;;;12.39;76.31
56400;BME280;42298;53.638;9.876;2023-10-09T01:31:54;101776.84;;;12.41;76.29
56400;BME280;42298;53.638;9.876;2023-10-09T01:34:24;101751.25;;;12.39;76.08
56400;BME280;42298;53.638;9.876;2023-10-09T01:36:58;101753.56;;;12.24;76.40
56400;BME280;42298;53.638;9.876;2023-10-09T01:39:48;101767.72;;;12.34;76.26
56400;BME280;42298;53.638;9.876;2023-10-09T01:42:19;101760.56;;;12.35;76.59
56400;BME280;42298;53.638;9.876;2023-10-09T01:45:02;101751.84;;;12.33;76.58
56400;BME280;42298;53.638;9.876;2023-10-09T01:47:47;101735.81;;;12.33;75.98
56400;BME280;42298;53.638;9.876;2023-10-09T01:50:22;101733.50;;;12.20;76.17
56400;BME280;42298;53.638;9.876;2023-10-09T01:52:50;101751.09;;;12.13;76.61
56400;BME280;42298;53.638;9.876;2023-10-09T01:55:19;101744.91;;;12.12;76.75
56400;BME280;42298;53.638;9.876;2023-10-09T01:58:14;101744.06;;;12.12;76.41
56400;BME280;42298;53.638;9.876;2023-10-09T02:00:50;101717.94;;;12.06;76.83
56400;BME280;42298;53.638;9.876;2023-10-09T02:03:22;101717.81;;;12.07;76.63
56400;BME280;42298;53.638;9.876;2023-10-09T02:05:54;101725.84;;;11.97;76.63
56400;BME280;42298;53.638;9.876;2023-10-09T02:08:39;101716.28;;;11.95;76.82
56400;BME280;42298;53.638;9.876;2023-10-09T02:11:14;101699.88;;;11.90;76.87
56400;BME280;42298;53.638;9.876;2023-10-09T02:13:39;101709.28;;;11.84;76.65
56400;BME280;42298;53.638;9.876;2023-10-09T02:16:07;101721.38;;;11.78;77.21
56400;BME280;42298;53.638;9.876;2023-10-09T02:18:40;101722.78;;;11.73;77.36
56400;BME280;42298;53.638;9.876;2023-10-09T02:21:18;101709.19;;;11.66;77.34
56400;BME280;42298;53.638;9.876;2023-10-09T02:23:53;101713.13;;;11.62;77.42
56400;BME280;42298;53.638;9.876;2023-10-09T02:26:22;101725.06;;;11.68;77.44
56400;BME280;42298;53.638;9.876;2023-10-09T02:28:55;101709.03;;;11.68;77.90
56400;BME280;42298;53.638;9.876;2023-10-09T02:31:25;101725.75;;;11.60;77.53
56400;BME280;42298;53.638;9.876;2023-10-09T02:33:52;101748.53;;;11.54;77.48
56400;BME280;42298;53.638;9.876;2023-10-09T02:36:24;101712.16;;;11.53;77.70
56400;BME280;42298;53.638;9.876;2023-10-09T02:38:49;101698.69;;;11.55;77.76
56400;BME280;42298;53.638;9.876;2023-10-09T02:41:18;101686.16;;;11.55;77.43
56400;BME280;42298;53.638;9.876;2023-10-09T02:43:46;101678.44;;;11.62;77.82
56400;BME280;42298;53.638;9.876;2023-10-09T02:46:35;101671.72;;;11.58;76.84
56400;BME280;42298;53.638;9.876;2023-10-09T02:49:01;101666.38;;;11.58;76.86
56400;BME280;42298;53.638;9.876;2023-10-09T02:51:31;101678.72;;;11.59;76.94
56400;BME280;42298;53.638;9.876;2023-10-09T02:54:06;101677.59;;;11.62;76.95
56400;BME280;42298;53.638;9.876;2023-10-09T02:56:50;101673.13;;;11.52;77.08
56400;BME280;42298;53.638;9.876;2023-10-09T02:59:30;101661.47;;;11.53;77.30
56400;BME280;42298;53.638;9.876;2023-10-09T03:01:57;101668.38;;;11.56;77.12
56400;BME280;42298;53.638;9.876;2023-10-09T03:04:27;101658.81;;;11.44;77.42
56400;BME280;42298;53.638;9.876;2023-10-09T03:06:57;101656.28;;;11.52;77.17
56400;BME280;42298;53.638;9.876;2023-10-09T03:09:22;101661.31;;;11.55;77.33
56400;BME280;42298;53.638;9.876;2023-10-09T03:11:56;101656.56;;;11.58;77.27
56400;BME280;42298;53.638;9.876;2023-10-09T03:14:28;101659.50;;;11.55;77.09
56400;BME280;42298;53.638;9.876;2023-10-09T03:16:54;101635.53;;;11.46;77.31
56400;BME280;42298;53.638;9.876;2023-10-09T03:19:19;101628.66;;;11.43;77.47
56400;BME280;42298;53.638;9.876;2023-10-09T03:21:44;101622.22;;;11.36;77.26
56400;BME280;42298;53.638;9.876;2023-10-09T03:24:11;101608.59;;;11.39;77.57
56400;BME280;42298;53.638;9.876;2023-10-09T03:26:37;101611.13;;;11.31;77.30
56400;BME280;42298;53.638;9.876;2023-10-09T03:29:02;101613.00;;;11.21;77.83
56400;BME280;42298;53.638;9.876;2023-10-09T03:31:34;101609.72;;;11.27;77.88
56400;BME280;42298;53.638;9.876;2023-10-09T03:34:00;101607.22;;;11.25;77.78
56400;BME280;42298;53.638;9.876;2023-10-09T03:36:25;101621.38;;;11.26;77.77
56400;BME280;42298;53.638;9.876;2023-10-09T03:38:54;101612.00;;;11.31;77.56
56400;BME280;42298;53.638;9.876;2023-10-09T03:41:21;101609.47;;;11.30;77.77
56400;BME280;42298;53.638;9.876;2023-10-09T03:43:46;101595.56;;;11.26;78.06
56400;BME280;42298;53.638;9.876;2023-10-09T03:46:12;101599.91;;;11.27;77.75
56400;BME280;42298;53.638;9.876;2023-10-09T03:48:50;101604.38;;;11.27;77.49
56400;BME280;42298;53.638;9.876;2023-10-09T03:51:16;101592.19;;;11.24;77.41
56400;BME280;42298;53.638;9.876;2023-10-09T03:53:50;101606.38;;;11.25;77.68
56400;BME280;42298;53.638;9.876;2023-10-09T03:56:16;101597.53;;;11.24;77.63
56400;BME280;42298;53.638;9.876;2023-10-09T03:58:44;101606.91;;;11.28;77.41
56400;BME280;42298;53.638;9.876;2023-10-09T04:01:13;101607.75;;;11.29;77.66
56400;BME280;42298;53.638;9.876;2023-10-09T04:03:52;101605.25;;;11.27;76.94
56400;BME280;42298;53.638;9.876;2023-10-09T04:06:25;101595.16;;;11.21;77.01
56400;BME280;42298;53.638;9.876;2023-10-09T04:09:03;101586.31;;;11.21;77.18
56400;BME280;42298;53.638;9.876;2023-10-09T04:11:48;101596.56;;;11.15;77.09
56400;BME280;42298;53.638;9.876;2023-10-09T04:14:32;101586.75;;;11.16;77.00
56400;BME280;42298;53.638;9.876;2023-10-09T04:17:01;101583.09;;;11.17;76.88
56400;BME280;42298;53.638;9.876;2023-10-09T04:19:30;101589.53;;;11.24;76.77
56400;BME280;42298;53.638;9.876;2023-10-09T04:22:07;101582.38;;;11.25;76.85
56400;BME280;42298;53.638;9.876;2023-10-09T04:24:34;101580.00;;;11.31;77.14
56400;BME280;42298;53.638;9.876;2023-10-09T04:27:06;101581.53;;;11.34;76.45
56400;BME280;42298;53.638;9.876;2023-10-09T04:29:33;101575.22;;;11.25;76.72
56400;BME280;42298;53.638;9.876;2023-10-09T04:32:05;101578.59;;;11.17;76.29
56400;BME280;42298;53.638;9.876;2023-10-09T04:34:41;101580.13;;;11.30;76.82
56400;BME280;42298;53.638;9.876;2023-10-09T04:37:21;101579.13;;;11.31;76.59
56400;BME280;42298;53.638;9.876;2023-10-09T04:40:08;101574.47;;;11.33;76.71
56400;BME280;42298;53.638;9.876;2023-10-09T04:43:00;101582.09;;;11.28;76.64
56400;BME280;42298;53.638;9.876;2023-10-09T04:45:31;101583.63;;;11.30;76.23
56400;BME280;42298;53.638;9.876;2023-10-09T04:48:08;101589.09;;;11.29;76.20
56400;BME280;42298;53.638;9.876;2023-10-09T04:50:34;101597.66;;;11.32;76.67
56400;BME280;42298;53.638;9.876;2023-10-09T04:53:01;101581.78;;;11.31;76.52
56400;BME280;42298;53.638;9.876;2023-10-09T04:55:47;101591.19;;;11.35;75.93
56400;BME280;42298;53.638;9.876;2023-10-09T04:58:23;101584.03;;;11.35;75.88
56400;BME280;42298;53.638;9.876;2023-10-09T05:00:53;101580.25;;;11.38;75.73
56400;BME280;42298;53.638;9.876;2023-10-09T05:03:22;101579.94;;;11.41;76.02
56400;BME280;42298;53.638;9.876;2023-10-09T05:05:52;101568.72;;;11.37;76.05
56400;BME280;42298;53.638;9.876;2023-10-09T05:08:27;101557.34;;;11.45;75.61
56400;BME280;42298;53.638;9.876;2023-10-09T05:10:58;101539.38;;;11.37;75.97
56400;BME280;42298;53.638;9.876;2023-10-09T05:13:24;101551.03;;;11.36;75.99
56400;BME280;42298;53.638;9.876;2023-10-09T05:18:53;101540.94;;;11.30;76.02
56400;BME280;42298;53.638;9.876;2023-10-09T05:21:40;101540.94;;;11.30;76.21
56400;BME280;42298;53.638;9.876;2023-10-09T05:24:08;101536.44;;;11.41;75.93
56400;BME280;42298;53.638;9.876;2023-10-09T05:26:38;101540.31;;;11.46;75.96
56400;BME280;42298;53.638;9.876;2023-10-09T05:32:06;101528.88;;;11.64;76.03
56400;BME280;42298;53.638;9.876;2023-10-09T05:34:38;101519.19;;;11.63;76.09
56400;BME280;42298;53.638;9.876;2023-10-09T05:37:22;101516.81;;;11.59;75.86
56400;BME280;42298;53.638;9.876;2023-10-09T05:39:53;101527.22;;;11.63;75.75
56400;BME280;42298;53.638;9.876;2023-10-09T05:42:29;101544.19;;;11.62;75.65
56400;BME280;42298;53.638;9.876;2023-10-09T05:45:14;101549.66;;;11.60;75.58
56400;BME280;42298;53.638;9.876;2023-10-09T05:47:52;101536.94;;;11.54;75.21
56400;BME280;42298;53.638;9.876;2023-10-09T05:50:30;101540.19;;;11.48;75.19
56400;BME280;42298;53.638;9.876;2023-10-09T05:53:00;101536.00;;;11.45;75.49
56400;BME280;42298;53.638;9.876;2023-10-09T05:55:27;101531.78;;;11.43;75.80
56400;BME280;42298;53.638;9.876;2023-10-09T05:58:11;101519.19;;;11.35;75.76
56400;BME280;42298;53.638;9.876;2023-10-09T06:11:02;101547.97;;;11.31;76.29
56400;BME280;42298;53.638;9.876;2023-10-09T06:18:43;101551.50;;;11.22;76.83
56400;BME280;42298;53.638;9.876;2023-10-09T06:21:19;101545.63;;;11.18;76.63
56400;BME280;42298;53.638;9.876;2023-10-09T06:24:05;101526.72;;;11.12;76.88
56400;BME280;42298;53.638;9.876;2023-10-09T06:26:46;101529.13;;;11.05;77.13
56400;BME280;42298;53.638;9.876;2023-10-09T06:29:28;101505.00;;;10.97;77.56
56400;BME280;42298;53.638;9.876;2023-10-09T06:32:10;101511.59;;;10.93;77.31
56400;BME280;42298;53.638;9.876;2023-10-09T06:37:12;101508.78;;;10.94;77.80
56400;BME280;42298;53.638;9.876;2023-10-09T06:39:50;101511.59;;;10.93;77.75
56400;BME280;42298;53.638;9.876;2023-10-09T06:42:37;101500.97;;;10.83;77.92
56400;BME280;42298;53.638;9.876;2023-10-09T06:45:10;101496.78;;;10.81;77.84
56400;BME280;42298;53.638;9.876;2023-10-09T06:47:47;101501.25;;;10.80;78.21
56400;BME280;42298;53.638;9.876;2023-10-09T06:50:35;101497.75;;;10.80;78.74
56400;BME280;42298;53.638;9.876;2023-10-09T06:53:35;101504.34;;;10.75;78.56
56400;BME280;42298;53.638;9.876;2023-10-09T06:56:28;101504.06;;;10.79;78.98
56400;BME280;42298;53.638;9.876;2023-10-09T06:59:04;101499.28;;;10.82;79.29
56400;BME280;42298;53.638;9.876;2023-10-09T07:01:40;101501.50;;;10.87;78.59
56400;BME280;42298;53.638;9.876;2023-10-09T07:04:09;101506.84;;;10.87;78.95
56400;BME280;42298;53.638;9.876;2023-10-09T07:06:47;101502.19;;;10.89;79.03
56400;BME280;42298;53.638;9.876;2023-10-09T07:09:13;101501.94;;;10.92;78.78
56400;BME280;42298;53.638;9.876;2023-10-09T07:11:40;101510.75;;;10.92;79.31
56400;BME280;42298;53.638;9.876;2023-10-09T07:14:10;101509.22;;;10.90;78.93
56400;BME280;42298;53.638;9.876;2023-10-09T07:19:30;101499.53;;;10.98;79.32
56400;BME280;42298;53.638;9.876;2023-10-09T07:22:00;101484.09;;;10.92;79.08
56400;BME280;42298;53.638;9.876;2023-10-09T07:24:28;101500.38;;;10.99;79.51
56400;BME280;42298;53.638;9.876;2023-10-09T07:27:05;101494.47;;;11.05;78.88
56400;BME280;42298;53.638;9.876;2023-10-09T07:29:40;101505.50;;;11.10;79.49
56400;BME280;42298;53.638;9.876;2023-10-09T07:32:18;101490.78;;;11.06;79.49
56400;BME280;42298;53.638;9.876;2023-10-09T07:34:48;101497.06;;;11.15;79.44
56400;BME280;42298;53.638;9.876;2023-10-09T07:37:27;101485.59;;;11.14;78.93
56400;BME280;42298;53.638;9.876;2023-10-09T07:40:02;101488.50;;;11.21;79.62
56400;BME280;42298;53.638;9.876;2023-10-09T07:42:32;101488.75;;;11.28;79.46
56400;BME280;42298;53.638;9.876;2023-10-09T07:45:07;101488.44;;;11.31;79.10
56400;BME280;42298;53.638;9.876;2023-10-09T07:47:48;101495.16;;;11.45;79.49
56400;BME280;42298;53.638;9.876;2023-10-09T07:50:27;101490.41;;;11.38;79.21
56400;BME280;42298;53.638;9.876;2023-10-09T07:53:04;101491.13;;;11.31;78.85
56400;BME280;42298;53.638;9.876;2023-10-09T07:55:48;101479.47;;;11.32;79.31
56400;BME280;42298;53.638;9.876;2023-10-09T07:58:27;101470.59;;;11.41;79.59
56400;BME280;42298;53.638;9.876;2023-10-09T08:00:55;101465.63;;;11.46;79.41
56400;BME280;42298;53.638;9.876;2023-10-09T08:03:26;101463.06;;;11.54;79.48
56400;BME280;42298;53.638;9.876;2023-10-09T08:05:57;101473.88;;;11.53;79.17
56400;BME280;42298;53.638;9.876;2023-10-09T08:08:33;101472.34;;;11.50;79.15
56400;BME280;42298;53.638;9.876;2023-10-09T08:10:58;101476.72;;;11.51;79.71
56400;BME280;42298;53.638;9.876;2023-10-09T08:13:42;101483.13;;;11.58;79.64
56400;BME280;42298;53.638;9.876;2023-10-09T08:16:30;101486.03;;;11.65;79.40
56400;BME280;42298;53.638;9.876;2023-10-09T08:19:05;101483.91;;;11.69;79.49
56400;BME280;42298;53.638;9.876;2023-10-09T08:22:06;101484.53;;;11.63;79.06
56400;BME280;42298;53.638;9.876;2023-10-09T08:24:50;101484.75;;;11.69;79.13
56400;BME280;42298;53.638;9.876;2023-10-09T08:27:25;101486.56;;;11.69;79.61
56400;BME280;42298;53.638;9.876;2023-10-09T08:30:15;101493.75;;;11.68;79.26
56400;BME280;42298;53.638;9.876;2023-10-09T08:32:45;101482.69;;;11.63;79.24
56400;BME280;42298;53.638;9.876;2023-10-09T08:35:36;101487.88;;;11.65;79.69
56400;BME280;42298;53.638;9.876;2023-10-09T08:38:15;101493.47;;;11.71;79.47
56400;BME280;42298;53.638;9.876;2023-10-09T08:40:43;101487.13;;;11.72;79.39
56400;BME280;42298;53.638;9.876;2023-10-09T08:43:16;101489.72;;;11.82;79.65
56400;BME280;42298;53.638;9.876;2023-10-09T08:45:48;101481.72;;;11.82;79.38
56400;BME280;42298;53.638;9.876;2023-10-09T08:48:17;101479.91;;;11.83;79.12
56400;BME280;42298;53.638;9.876;2023-10-09T08:50:47;101485.25;;;11.83;79.77
56400;BME280;42298;53.638;9.876;2023-10-09T08:53:13;101476.22;;;11.84;79.45
56400;BME280;42298;53.638;9.876;2023-10-09T08:55:40;101479.44;;;11.87;79.60
56400;BME280;42298;53.638;9.876;2023-10-09T08:58:06;101471.28;;;11.89;79.37
56400;BME280;42298;53.638;9.876;2023-10-09T09:00:43;101475.41;;;11.83;79.87
56400;BME280;42298;53.638;9.876;2023-10-09T09:03:17;101482.25;;;11.86;79.83
56400;BME280;42298;53.638;9.876;2023-10-09T09:05:47;101471.44;;;11.87;80.23
56400;BME280;42298;53.638;9.876;2023-10-09T09:08:25;101477.88;;;11.94;79.90
56400;BME280;42298;53.638;9.876;2023-10-09T09:13:41;101476.59;;;11.98;80.01
56400;BME280;42298;53.638;9.876;2023-10-09T09:16:14;101468.72;;;11.97;79.70
56400;BME280;42298;53.638;9.876;2023-10-09T09:18:52;101475.28;;;12.03;79.54
56400;BME280;42298;53.638;9.876;2023-10-09T09:21:26;101472.31;;;12.06;79.97
56400;BME280;42298;53.638;9.876;2023-10-09T09:24:02;101473.00;;;12.08;79.97
56400;BME280;42298;53.638;9.876;2023-10-09T09:26:35;101476.03;;;12.13;79.98
56400;BME280;42298;53.638;9.876;2023-10-09T09:29:06;101478.41;;;12.16;80.20
56400;BME280;42298;53.638;9.876;2023-10-09T09:31:32;101478.94;;;12.19;80.06
56400;BME280;42298;53.638;9.876;2023-10-09T09:34:04;101476.25;;;12.19;79.65
56400;BME280;42298;53.638;9.876;2023-10-09T09:36:49;101470.22;;;12.17;79.88
56400;BME280;42298;53.638;9.876;2023-10-09T09:39:20;101473.38;;;12.13;80.05
56400;BME280;42298;53.638;9.876;2023-10-09T09:41:53;101466.00;;;12.07;80.22
56400;BME280;42298;53.638;9.876;2023-10-09T09:44:19;101464.66;;;12.11;80.18
56400;BME280;42298;53.638;9.876;2023-10-09T09:46:47;101462.09;;;12.19;80.42
56400;BME280;42298;53.638;9.876;2023-10-09T09:49:13;101458.03;;;12.15;80.18
56400;BME280;42298;53.638;9.876;2023-10-09T09:51:47;101469.94;;;12.20;80.14
56400;BME280;42298;53.638;9.876;2023-10-09T09:54:14;101465.75;;;12.18;80.02
56400;BME280;42298;53.638;9.876;2023-10-09T09:56:46;101457.75;;;12.18;80.49
56400;BME280;42298;53.638;9.876;2023-10-09T09:59:18;101455.91;;;12.18;80.36
56400;BME280;42298;53.638;9.876;2023-10-09T10:01:49;101454.75;;;12.21;80.66
56400;BME280;42298;53.638;9.876;2023-10-09T10:04:32;101453.31;;;12.27;80.68
56400;BME280;42298;53.638;9.876;2023-10-09T10:07:01;101432.25;;;12.24;80.89
56400;BME280;42298;53.638;9.876;2023-10-09T10:09:39;101451.22;;;12.38;80.92
56400;BME280;42298;53.638;9.876;2023-10-09T10:12:10;101442.88;;;12.41;80.67
56400;BME280;42298;53.638;9.876;2023-10-09T10:17:17;101444.94;;;12.48;80.57
56400;BME280;42298;53.638;9.876;2023-10-09T10:20:03;101445.63;;;12.50;80.61
56400;BME280;42298;53.638;9.876;2023-10-09T10:22:43;101445.88;;;12.38;80.57
56400;BME280;42298;53.638;9.876;2023-10-09T10:28:23;101456.69;;;12.55;80.66
56400;BME280;42298;53.638;9.876;2023-10-09T10:31:14;101450.19;;;12.57;80.88
56400;BME280;42298;53.638;9.876;2023-10-09T10:36:22;101451.13;;;12.74;80.70
56400;BME280;42298;53.638;9.876;2023-10-09T10:38:59;101447.63;;;12.74;80.55
56400;BME280;42298;53.638;9.876;2023-10-09T10:41:30;101444.13;;;12.73;80.72
56400;BME280;42298;53.638;9.876;2023-10-09T10:44:04;101451.00;;;12.76;80.48
56400;BME280;42298;53.638;9.876;2023-10-09T10:46:49;101451.13;;;12.74;80.66
56400;BME280;42298;53.638;9.876;2023-10-09T10:49:17;101458.84;;;12.77;80.73
56400;BME280;42298;53.638;9.876;2023-10-09T10:51:48;101458.69;;;12.79;80.54
56400;BME280;42298;53.638;9.876;2023-10-09T10:54:21;101452.34;;;12.80;80.42
56400;BME280;42298;53.638;9.876;2023-10-09T10:56:58;101456.84;;;12.79;80.60
56400;BME280;42298;53.638;9.876;2023-10-09T10:59:25;101448.47;;;12.74;80.53
56400;BME280;42298;53.638;9.876;2023-10-09T11:01:59;101451.13;;;12.74;80.57
56400;BME280;42298;53.638;9.876;2023-10-09T11:04:26;101451.13;;;12.74;80.67
56400;BME280;42298;53.638;9.876;2023-10-09T11:06:55;101454.66;;;12.75;80.72
56400;BME280;42298;53.638;9.876;2023-10-09T11:09:26;101454.50;;;12.76;80.94
56400;BME280;42298;53.638;9.876;2023-10-09T11:12:07;101448.81;;;12.79;80.72
56400;BME280;42298;53.638;9.876;2023-10-09T11:14:48;101443.81;;;12.76;80.66
56400;BME280;42298;53.638;9.876;2023-10-09T11:17:37;101446.00;;;12.81;81.03
56400;BME280;42298;53.638;9.876;2023-10-09T11:20:05;101445.53;;;12.86;81.08
56400;BME280;42298;53.638;9.876;2023-10-09T11:22:52;101442.22;;;12.92;81.21
56400;BME280;42298;53.638;9.876;2023-10-09T11:25:36;101433.88;;;12.95;80.74
56400;BME280;42298;53.638;9.876;2023-10-09T11:28:03;101434.34;;;12.90;81.00
56400;BME280;42298;53.638;9.876;2023-10-09T11:30:48;101449.22;;;12.93;81.00
56400;BME280;42298;53.638;9.876;2023-10-09T11:33:20;101446.75;;;12.91;80.84
56400;BME280;42298;53.638;9.876;2023-10-09T11:35:56;101450.78;;;12.95;81.22
56400;BME280;42298;53.638;9.876;2023-10-09T11:38:23;101452.09;;;12.99;80.61
56400;BME280;42298;53.638;9.876;2023-10-09T11:40:50;101446.13;;;12.97;80.71
56400;BME280;42298;53.638;9.876;2023-10-09T11:43:19;101436.44;;;13.04;80.79
56400;BME280;42298;53.638;9.876;2023-10-09T11:46:10;101444.00;;;13.09;80.73
56400;BME280;42298;53.638;9.876;2023-10-09T11:49:06;101440.97;;;13.12;81.00
56400;BME280;42298;53.638;9.876;2023-10-09T11:51:44;101435.16;;;13.17;80.99
56400;BME280;42298;53.638;9.876;2023-10-09T11:54:33;101440.25;;;13.28;80.92
56400;BME280;42298;53.638;9.876;2023-10-09T11:56:59;101440.09;;;13.30;80.80
56400;BME280;42298;53.638;9.876;2023-10-09T11:59:28;101440.09;;;13.30;80.74
56400;BME280;42298;53.638;9.876;2023-10-09T12:02:00;101439.25;;;13.29;81.08
56400;BME280;42298;53.638;9.876;2023-10-09T12:04:26;101443.59;;;13.30;80.58
56400;BME280;42298;53.638;9.876;2023-10-09T12:06:55;101448.78;;;13.32;80.77
56400;BME280;42298;53.638;9.876;2023-10-09T12:09:32;101438.78;;;13.34;80.58
56400;BME280;42298;53.638;9.876;2023-10-09T12:12:02;101426.56;;;13.31;81.12
56400;BME280;42298;53.638;9.876;2023-10-09T12:14:28;101434.44;;;13.41;80.84
56400;BME280;42298;53.638;9.876;2023-10-09T12:16:59;101439.00;;;13.49;80.87
56400;BME280;42298;53.638;9.876;2023-10-09T12:19:35;101429.81;;;13.51;81.00
56400;BME280;42298;53.638;9.876;2023-10-09T12:22:01;101429.91;;;13.41;80.98
56400;BME280;42298;53.638;9.876;2023-10-09T12:24:29;101432.09;;;13.38;80.94
56400;BME280;42298;53.638;9.876;2023-10-09T12:26:55;101438.13;;;13.40;80.82
56400;BME280;42298;53.638;9.876;2023-10-09T12:29:21;101432.09;;;13.38;81.21
56400;BME280;42298;53.638;9.876;2023-10-09T12:31:46;101438.13;;;13.48;81.09
56400;BME280;42298;53.638;9.876;2023-10-09T12:34:12;101445.84;;;13.51;81.39
56400;BME280;42298;53.638;9.876;2023-10-09T12:36:47;101443.03;;;13.53;81.08
56400;BME280;42298;53.638;9.876;2023-10-09T12:39:14;101453.72;;;13.61;81.16
56400;BME280;42298;53.638;9.876;2023-10-09T12:41:46;101455.44;;;13.62;81.01
56400;BME280;42298;53.638;9.876;2023-10-09T12:44:13;101444.72;;;13.62;81.19
56400;BME280;42298;53.638;9.876;2023-10-09T12:46:45;101434.84;;;13.62;81.14
56400;BME280;42298;53.638;9.876;2023-10-09T12:49:20;101439.56;;;13.69;81.40
56400;BME280;42298;53.638;9.876;2023-10-09T12:51:53;101443.56;;;13.73;81.02
56400;BME280;42298;53.638;9.876;2023-10-09T12:54:18;101443.38;;;13.74;81.25
56400;BME280;42298;53.638;9.876;2023-10-09T12:56:53;101443.91;;;13.78;81.15
56400;BME280;42298;53.638;9.876;2023-10-09T12:59:18;101437.53;;;13.79;81.08
56400;BME280;42298;53.638;9.876;2023-10-09T13:01:46;101430.69;;;13.76;81.14
56400;BME280;42298;53.638;9.876;2023-10-09T13:04:17;101439.72;;;13.83;81.38
56400;BME280;42298;53.638;9.876;2023-10-09T13:06:43;101438.22;;;13.81;80.99
56400;BME280;42298;53.638;9.876;2023-10-09T13:09:12;101431.19;;;13.80;80.84
56400;BME280;42298;53.638;9.876;2023-10-09T13:11:43;101417.44;;;13.75;80.99
56400;BME280;42298;53.638;9.876;2023-10-09T13:14:10;101429.69;;;13.85;81.17
56400;BME280;42298;53.638;9.876;2023-10-09T13:16:48;101430.84;;;13.83;81.21
56400;BME280;42298;53.638;9.876;2023-10-09T13:19:17;101434.72;;;13.89;81.33
56400;BME280;42298;53.638;9.876;2023-10-09T13:21:43;101421.16;;;13.90;81.36
56400;BME280;42298;53.638;9.876;2023-10-09T13:24:09;101431.56;;;13.93;81.38
56400;BME280;42298;53.638;9.876;2023-10-09T13:26:41;101428.72;;;14.03;81.29
56400;BME280;42298;53.638;9.876;2023-10-09T13:29:10;101412.81;;;14.01;81.47
56400;BME280;42298;53.638;9.876;2023-10-09T13:31:38;101425.72;;;14.06;81.55
56400;BME280;42298;53.638;9.876;2023-10-09T13:34:12;101434.88;;;14.03;81.46
56400;BME280;42298;53.638;9.876;2023-10-09T13:36:42;101435.25;;;14.08;82.03
56400;BME280;42298;53.638;9.876;2023-10-09T13:39:24;101428.19;;;14.07;81.92
56400;BME280;42298;53.638;9.876;2023-10-09T13:41:57;101430.88;;;14.16;81.69
56400;BME280;42298;53.638;9.876;2023-10-09T13:44:28;101426.38;;;14.08;81.49
56400;BME280;42298;53.638;9.876;2023-10-09T13:46:54;101411.31;;;14.15;82.26
56400;BME280;42298;53.638;9.876;2023-10-09T13:49:20;101426.22;;;14.26;81.95
56400;BME280;42298;53.638;9.876;2023-10-09T13:51:47;101422.69;;;14.34;82.09
56400;BME280;42298;53.638;9.876;2023-10-09T13:54:16;101416.13;;;14.36;81.91
56400;BME280;42298;53.638;9.876;2023-10-09T13:56:56;101423.81;;;14.47;81.87
56400;BME280;42298;53.638;9.876;2023-10-09T13:59:22;101418.47;;;14.47;82.01
56400;BME280;42298;53.638;9.876;2023-10-09T14:01:50;101426.19;;;14.59;81.68